Weather reports worldwide

Advertisment
Cairngorm, United Kingdom (3065): temperature & dewpoint: 03.08.2020 21:00:00 - 09.08.2020 21:00:00 (BST)Cairngorm, United Kingdom (3065): wind speed & gusts: 03.08.2020 21:00:00 - 09.08.2020 21:00:00 (BST)Cairngorm, United Kingdom (3065): wind direction: 03.08.2020 21:00:00 - 09.08.2020 21:00:00 (BST)
Date & Time tt [°C] td [°C] ff [km/h] ff [kn] fx [km/h] fx [kn] dd
09.08.2020 21:00:00 6,7 5,3 26 14 - - SSE
09.08.2020 20:00:00 8,4 5,5 26 14 - - S
09.08.2020 19:00:00 10,2 4,9 28 15 - - SSE
09.08.2020 18:00:00 10,8 5,0 28 15 - - SSE
09.08.2020 17:00:00 11,1 3,9 29 16 - - SSE
09.08.2020 16:00:00 11,3 3,4 24 13 - - S
09.08.2020 15:00:00 11,7 2,3 34 18 48 26 SE
09.08.2020 14:00:00 11,2 4,2 35 19 48 26 SSE
09.08.2020 13:00:00 10,1 2,5 37 20 48 26 SSE
09.08.2020 12:00:00 9,8 3,9 31 17 48 26 SE
09.08.2020 11:00:00 9,2 5,0 35 19 46 25 SSE
09.08.2020 10:00:00 8,4 4,8 39 21 50 27 SSE
09.08.2020 09:00:00 7,9 4,0 34 18 - - S
09.08.2020 08:00:00 7,1 2,8 26 14 - - SSE
09.08.2020 07:00:00 7,7 3,8 28 15 - - SSE
09.08.2020 06:00:00 7,3 5,5 29 16 - - SSE
09.08.2020 05:00:00 6,3 4,8 11 6 - - S
09.08.2020 04:00:00 6,7 5,8 16 9 - - S
09.08.2020 03:00:00 6,5 6,0 13 7 - - S
09.08.2020 02:00:00 6,5 6,2 11 6 - - S
09.08.2020 01:00:00 6,4 6,4 13 7 - - S
09.08.2020 00:00:00 7,0 6,9 4 2 - - S
08.08.2020 23:00:00 7,1 7,0 9 5 - - SSW
08.08.2020 22:00:00 7,1 7,1 13 7 - - SSW
08.08.2020 21:00:00 7,9 7,3 11 6 - - S
08.08.2020 20:00:00 8,9 8,3 15 8 - - SE
08.08.2020 19:00:00 11,5 6,9 13 7 - - N
08.08.2020 18:00:00 11,9 4,6 8 4 - - NNW
08.08.2020 17:00:00 10,2 4,1 11 6 - - NNE
08.08.2020 16:00:00 10,6 2,3 9 5 - - NW
08.08.2020 15:00:00 11,6 3,0 8 4 - - W
08.08.2020 14:00:00 10,2 2,7 13 7 - - W
08.08.2020 13:00:00 9,3 3,0 13 7 - - WNW
08.08.2020 12:00:00 9,6 3,8 11 6 - - WNW
08.08.2020 11:00:00 8,7 4,6 8 4 - - WNW
08.08.2020 10:00:00 9,2 1,4 4 2 - - W
08.08.2020 09:00:00 7,6 2,8 4 2 - - E
08.08.2020 08:00:00 5,6 2,5 34 18 - - W
08.08.2020 07:00:00 5,3 3,3 31 17 - - WNW
08.08.2020 06:00:00 4,4 4,4 39 21 52 28 WNW
08.08.2020 05:00:00 4,0 4,0 46 25 55 30 W
08.08.2020 04:00:00 4,4 4,4 44 24 50 27 W
08.08.2020 03:00:00 4,7 4,3 41 22 48 26 W
08.08.2020 02:00:00 4,8 4,4 29 16 - - WNW
08.08.2020 01:00:00 4,9 4,9 29 16 - - WNW
08.08.2020 00:00:00 5,4 5,4 37 20 55 30 WNW
07.08.2020 23:00:00 6,0 6,0 50 27 63 34 W
07.08.2020 22:00:00 7,9 7,8 37 20 50 27 W
07.08.2020 21:00:00 9,4 9,4 24 13 52 28 W
07.08.2020 20:00:00 10,3 10,3 42 23 93 50 SW
07.08.2020 19:00:00 10,6 10,5 50 27 78 42 SW
07.08.2020 18:00:00 10,8 10,7 61 33 83 45 SSW
07.08.2020 17:00:00 10,5 10,3 61 33 93 50 S
07.08.2020 16:00:00 11,0 10,0 63 34 83 45 S
07.08.2020 15:00:00 10,3 9,8 68 37 98 53 S
07.08.2020 14:00:00 9,7 9,6 76 41 94 51 S
07.08.2020 13:00:00 9,7 9,7 55 30 80 43 S
07.08.2020 12:00:00 10,3 8,3 59 32 74 40 S
07.08.2020 11:00:00 9,8 8,7 54 29 68 37 S
07.08.2020 10:00:00 10,4 8,2 54 29 78 42 SSW
07.08.2020 09:00:00 9,7 8,7 61 33 81 44 S
07.08.2020 08:00:00 9,7 9,0 63 34 83 45 SSW
07.08.2020 07:00:00 9,6 8,6 70 38 91 49 SSW
07.08.2020 06:00:00 9,4 9,2 78 42 93 50 SSW
07.08.2020 05:00:00 8,9 8,9 52 28 80 43 SW
07.08.2020 04:00:00 9,0 9,0 26 14 55 30 SW
07.08.2020 03:00:00 8,9 8,9 28 15 - - SSW
07.08.2020 02:00:00 9,1 9,1 18 10 - - SSW
07.08.2020 01:00:00 9,1 9,1 29 16 55 30 SSW
07.08.2020 00:00:00 9,4 9,4 39 21 80 43 SSW
06.08.2020 23:00:00 9,7 9,7 55 30 87 47 S
06.08.2020 22:00:00 9,9 9,8 54 29 87 47 S
06.08.2020 21:00:00 9,9 9,9 57 31 89 48 S
06.08.2020 20:00:00 10,2 10,2 55 30 78 42 SSE
06.08.2020 19:00:00 9,9 9,8 35 19 78 42 SSE
06.08.2020 18:00:00 9,9 9,7 63 34 74 40 SSE
06.08.2020 17:00:00 11,0 9,0 35 19 55 30 S
06.08.2020 16:00:00 13,8 8,7 34 18 50 27 S
06.08.2020 15:00:00 13,9 7,7 26 14 48 26 SSE
06.08.2020 14:00:00 13,1 7,3 35 19 48 26 S
06.08.2020 13:00:00 13,0 6,5 29 16 46 25 S
06.08.2020 12:00:00 12,2 7,4 26 14 - - SSE
06.08.2020 11:00:00 11,1 6,8 18 10 - - S
06.08.2020 10:00:00 10,8 6,0 11 6 - - SSW
06.08.2020 09:00:00 10,3 3,0 15 8 - - SSW
06.08.2020 08:00:00 10,1 3,3 8 4 - - S
06.08.2020 07:00:00 8,7 7,6 9 5 - - W
06.08.2020 06:00:00 7,9 7,9 21 11 - - W
06.08.2020 05:00:00 6,6 6,6 9 5 - - SW
06.08.2020 04:00:00 6,1 6,1 16 9 - - W
06.08.2020 03:00:00 6,6 6,6 11 6 - - S
06.08.2020 02:00:00 7,1 7,1 16 9 - - W
06.08.2020 01:00:00 7,3 7,3 16 9 - - WSW
06.08.2020 00:00:00 7,9 7,8 21 11 - - WSW
05.08.2020 23:00:00 8,2 8,2 21 11 - - W
05.08.2020 22:00:00 8,6 8,6 11 6 - - WSW
05.08.2020 21:00:00 8,9 8,9 21 11 - - WSW
05.08.2020 20:00:00 9,1 9,1 22 12 - - WSW
05.08.2020 19:00:00 9,7 9,7 28 15 - - SW
05.08.2020 18:00:00 9,4 9,4 24 13 48 26 S
05.08.2020 17:00:00 10,1 10,1 35 19 55 30 WSW
05.08.2020 16:00:00 9,0 8,9 35 19 52 28 SSW
05.08.2020 15:00:00 8,4 8,3 44 24 55 30 SSW
05.08.2020 14:00:00 10,4 10,4 29 16 63 34 SW
05.08.2020 13:00:00 8,5 8,5 26 14 48 26 SW
05.08.2020 12:00:00 8,3 8,2 21 11 - - SSW
05.08.2020 11:00:00 9,1 9,0 11 6 - - SSW
05.08.2020 10:00:00 8,1 8,1 22 12 46 25 WSW
05.08.2020 09:00:00 7,6 7,6 28 15 67 36 WSW
05.08.2020 08:00:00 8,3 8,2 59 32 81 44 WSW
05.08.2020 07:00:00 7,9 7,9 59 32 87 47 W
05.08.2020 06:00:00 7,9 7,8 55 30 89 48 WSW
05.08.2020 05:00:00 7,8 7,7 70 38 100 54 WSW
05.08.2020 04:00:00 7,7 7,7 63 34 94 51 WSW
05.08.2020 03:00:00 7,7 7,7 68 37 100 54 W
05.08.2020 02:00:00 7,7 7,7 67 36 98 53 WSW
05.08.2020 01:00:00 8,3 8,3 52 28 126 68 WSW
05.08.2020 00:00:00 9,7 9,6 96 52 122 66 WSW
04.08.2020 23:00:00 10,3 10,2 98 53 119 64 WSW
04.08.2020 22:00:00 10,0 9,9 89 48 115 62 WSW
04.08.2020 21:00:00 10,3 10,2 72 39 107 58 SW
04.08.2020 20:00:00 10,2 10,2 68 37 104 56 SW
04.08.2020 19:00:00 10,0 10,0 65 35 102 55 SW
04.08.2020 18:00:00 9,6 9,6 67 36 120 65 SSW
04.08.2020 17:00:00 8,9 8,9 78 42 115 62 SSW
04.08.2020 16:00:00 8,2 8,1 68 37 93 50 SSW
04.08.2020 15:00:00 7,5 7,4 67 36 94 51 SSW
04.08.2020 14:00:00 6,6 6,5 74 40 93 50 SSW
04.08.2020 13:00:00 5,6 5,6 81 44 98 53 S
04.08.2020 12:00:00 5,1 5,1 81 44 98 53 S
04.08.2020 11:00:00 4,8 4,7 81 44 102 55 S
04.08.2020 10:00:00 4,2 4,2 74 40 100 54 S
04.08.2020 09:00:00 4,0 4,0 74 40 93 50 S
04.08.2020 08:00:00 3,7 3,6 59 32 87 47 S
04.08.2020 07:00:00 3,4 3,4 67 36 81 44 S
04.08.2020 06:00:00 3,4 3,4 55 30 72 39 S
04.08.2020 05:00:00 3,2 3,1 42 23 65 35 SW
04.08.2020 04:00:00 3,5 3,5 16 9 52 28 SW
04.08.2020 03:00:00 3,4 3,0 37 20 48 26 SW
04.08.2020 02:00:00 3,1 3,1 26 14 - - SSW
04.08.2020 01:00:00 3,8 3,0 22 12 - - SW
04.08.2020 00:00:00 4,0 3,4 29 16 - - WSW
03.08.2020 23:00:00 4,2 2,8 28 15 50 27 WSW
03.08.2020 22:00:00 4,1 2,3 28 15 48 26 W
03.08.2020 21:00:00 4,4 2,1 29 16 65 35 W

tt = temperature
td = dewpoint
ff = wind speed
fx = gusts
dd = wind direction

Next stations